createdAt,value
2022-10-29T00:02:01.003Z,101178.16
2022-10-29T00:04:28.958Z,101183.78
2022-10-29T00:06:56.905Z,101178.38
2022-10-29T00:09:24.826Z,101175.84
2022-10-29T00:11:54.210Z,101182.09
2022-10-29T00:14:22.128Z,101183.13
2022-10-29T00:16:50.108Z,101179.59
2022-10-29T00:19:18.082Z,101172.50
2022-10-29T00:21:46.000Z,101167.09
2022-10-29T00:24:14.107Z,101168.34
2022-10-29T00:26:42.036Z,101165.84
2022-10-29T00:29:11.341Z,101173.13
2022-10-29T00:31:39.378Z,101174.16
2022-10-29T00:34:07.420Z,101173.31
2022-10-29T00:36:35.373Z,101170.63
2022-10-29T00:39:03.369Z,101170.38
2022-10-29T00:41:31.456Z,101169.13
2022-10-29T00:44:30.516Z,101167.47
2022-10-29T00:47:02.660Z,101167.47
2022-10-29T00:49:30.968Z,101172.88
2022-10-29T00:51:59.023Z,101170.38
2022-10-29T00:54:28.491Z,101172.25
2022-10-29T00:56:59.679Z,101166.00
2022-10-29T00:59:27.603Z,101168.06
2022-10-29T01:01:56.990Z,101170.78
2022-10-29T01:04:25.037Z,101167.44
2022-10-29T01:06:53.207Z,101164.72
2022-10-29T01:09:21.115Z,101157.44
2022-10-29T01:11:53.971Z,101163.72
2022-10-29T01:14:26.449Z,101164.31
2022-10-29T01:16:56.820Z,101152.91
2022-10-29T01:19:33.561Z,101158.91
2022-10-29T01:22:01.551Z,101155.38
2022-10-29T01:24:54.454Z,101154.56
2022-10-29T01:28:06.544Z,101156.44
2022-10-29T01:30:49.400Z,101147.50
2022-10-29T01:33:18.537Z,101153.72
2022-10-29T01:35:50.819Z,101147.50
2022-10-29T01:38:26.017Z,101152.03
2022-10-29T01:40:57.676Z,101146.63
2022-10-29T01:43:26.913Z,101144.97
2022-10-29T01:45:57.950Z,101145.81
2022-10-29T01:48:32.152Z,101138.75
2022-10-29T01:51:02.371Z,101139.78
2022-10-29T01:53:30.365Z,101144.16
2022-10-29T01:55:58.310Z,101143.31
2022-10-29T01:58:26.226Z,101136.25
2022-10-29T02:00:59.092Z,101136.25
2022-10-29T02:03:32.420Z,101139.97
2022-10-29T02:06:02.947Z,101141.00
2022-10-29T02:08:34.090Z,101133.75
2022-10-29T02:11:03.684Z,101133.09
2022-10-29T02:13:33.825Z,101138.50
2022-10-29T02:16:03.984Z,101137.69
2022-10-29T02:18:31.964Z,101130.59
2022-10-29T02:21:00.238Z,101141.41
2022-10-29T02:23:29.082Z,101142.44
2022-10-29T02:25:57.067Z,101140.78
2022-10-29T02:28:25.159Z,101142.63
2022-10-29T02:30:53.040Z,101141.81
2022-10-29T02:33:22.436Z,101137.22
2022-10-29T02:35:50.347Z,101134.53
2022-10-29T02:38:18.278Z,101135.38
2022-10-29T02:40:46.194Z,101122.06
2022-10-29T02:43:14.195Z,101127.47
2022-10-29T02:45:42.184Z,101129.97
2022-10-29T02:48:10.095Z,101121.22
2022-10-29T02:50:39.426Z,101123.09
2022-10-29T02:53:07.427Z,101128.50
2022-10-29T02:55:35.324Z,101126.63
2022-10-29T02:58:03.265Z,101132.03
2022-10-29T03:00:31.226Z,101136.63
2022-10-29T03:02:59.524Z,101135.75
2022-10-29T03:05:28.025Z,101134.09
2022-10-29T03:07:57.421Z,101127.03
2022-10-29T03:10:25.386Z,101139.69
2022-10-29T03:12:53.448Z,101130.75
2022-10-29T03:15:21.584Z,101129.91
2022-10-29T03:17:49.485Z,101129.91
2022-10-29T03:20:17.641Z,101127.41
2022-10-29T03:22:45.623Z,101127.41
2022-10-29T03:25:15.046Z,101125.75
2022-10-29T03:27:43.141Z,101122.41
2022-10-29T03:30:12.443Z,101121.56
2022-10-29T03:32:40.995Z,101122.41
2022-10-29T03:35:09.630Z,101122.41
2022-10-29T03:37:37.654Z,101120.75
2022-10-29T03:40:06.213Z,101119.91
2022-10-29T03:42:35.616Z,101109.94
2022-10-29T03:45:03.566Z,101117.22
2022-10-29T03:47:31.542Z,101124.47
2022-10-29T03:49:59.483Z,101119.91
2022-10-29T03:52:27.396Z,101118.22
2022-10-29T03:54:55.322Z,101119.06
2022-10-29T03:57:23.271Z,101123.63
2022-10-29T03:59:52.886Z,101122.81
2022-10-29T04:02:20.998Z,101123.63
2022-10-29T04:04:49.120Z,101123.84
2022-10-29T04:07:17.121Z,101118.44
2022-10-29T04:09:45.158Z,101114.06
2022-10-29T04:12:15.172Z,101121.34
2022-10-29T04:14:45.680Z,101115.09
2022-10-29T04:17:15.230Z,101122.38
2022-10-29T04:19:43.177Z,101116.16
2022-10-29T04:28:41.961Z,101127.31
2022-10-29T04:30:35.111Z,101131.06
2022-10-29T04:33:04.640Z,101126.72
2022-10-29T04:35:32.657Z,101125.66
2022-10-29T04:38:00.671Z,101126.72
2022-10-29T04:40:28.867Z,101131.47
2022-10-29T04:42:57.083Z,101127.72
2022-10-29T04:45:25.210Z,101123.34
2022-10-29T04:48:00.199Z,101120.66
2022-10-29T04:50:29.512Z,101119.84
2022-10-29T04:52:59.635Z,101120.66
2022-10-29T04:55:27.556Z,101120.66
2022-10-29T04:57:55.993Z,101120.84
2022-10-29T05:00:24.584Z,101118.97
2022-10-29T05:02:53.225Z,101124.38
2022-10-29T05:05:22.344Z,101126.25
2022-10-29T05:07:57.045Z,101122.72
2022-10-29T05:10:25.464Z,101128.13
2022-10-29T05:12:58.311Z,101131.88
2022-10-29T05:15:26.504Z,101133.69
2022-10-29T05:17:54.619Z,101129.31
2022-10-29T05:20:22.850Z,101131.19
2022-10-29T05:22:52.175Z,101139.28
2022-10-29T05:25:20.081Z,101135.75
2022-10-29T05:27:48.019Z,101134.94
2022-10-29T05:30:16.097Z,101138.63
2022-10-29T05:32:44.601Z,101136.75
2022-10-29T05:35:12.580Z,101143.22
2022-10-29T05:37:40.537Z,101154.00
2022-10-29T05:40:12.055Z,101154.19
2022-10-29T05:42:43.651Z,101156.88
2022-10-29T05:45:15.148Z,101158.75
2022-10-29T05:47:43.111Z,101160.44
2022-10-29T05:50:11.430Z,101157.94
2022-10-29T05:52:39.377Z,101160.63
2022-10-29T05:55:10.214Z,101159.81
2022-10-29T05:57:38.234Z,101164.16
2022-10-29T06:00:08.580Z,101172.47
2022-10-29T06:02:36.617Z,101176.84
2022-10-29T06:05:05.259Z,101181.19
2022-10-29T06:07:33.228Z,101176.00
2022-10-29T06:10:01.579Z,101181.59
2022-10-29T06:12:34.824Z,101182.41
2022-10-29T06:15:03.178Z,101191.56
2022-10-29T06:17:31.139Z,101186.97
2022-10-29T06:19:59.240Z,101192.38
2022-10-29T06:22:27.178Z,101189.69
2022-10-29T06:24:55.169Z,101185.31
2022-10-29T06:27:23.063Z,101186.16
2022-10-29T06:29:52.434Z,101193.44
2022-10-29T06:32:20.361Z,101185.31
2022-10-29T06:34:48.406Z,101188.03
2022-10-29T06:37:16.435Z,101186.16
2022-10-29T06:39:46.321Z,101183.63
2022-10-29T06:42:14.335Z,101187.19
2022-10-29T06:44:42.648Z,101184.50
2022-10-29T06:47:12.032Z,101191.56
2022-10-29T06:49:39.930Z,101191.56
2022-10-29T06:52:07.900Z,101196.13
2022-10-29T06:54:35.838Z,101204.00
2022-10-29T06:57:03.808Z,101195.09
2022-10-29T06:59:31.841Z,101205.06
2022-10-29T07:02:00.191Z,101203.19
2022-10-29T07:04:29.564Z,101205.72
2022-10-29T07:06:57.555Z,101211.94
2022-10-29T07:09:25.554Z,101204.88
2022-10-29T07:11:53.589Z,101212.59
2022-10-29T07:14:21.554Z,101205.31
2022-10-29T07:16:49.547Z,101211.53
2022-10-29T07:19:17.524Z,101215.06
2022-10-29T07:21:47.053Z,101212.38
2022-10-29T07:24:17.734Z,101212.38
2022-10-29T07:26:46.051Z,101219.47
2022-10-29T07:29:14.032Z,101207.84
2022-10-29T07:31:42.141Z,101214.25
2022-10-29T07:34:10.106Z,101208.66
2022-10-29T07:36:38.882Z,101213.22
2022-10-29T07:39:08.888Z,101207.84
2022-10-29T07:41:37.371Z,101206.78
2022-10-29T07:44:05.314Z,101209.31
2022-10-29T07:46:33.690Z,101209.94
2022-10-29T07:49:02.075Z,101213.31
2022-10-29T07:51:30.471Z,101220.19
2022-10-29T07:53:58.938Z,101213.38
2022-10-29T07:56:29.469Z,101215.69
2022-10-29T07:58:57.420Z,101212.59
2022-10-29T08:01:26.954Z,101214.69
2022-10-29T08:03:54.991Z,101215.13
2022-10-29T08:06:23.694Z,101212.25
2022-10-29T08:08:51.722Z,101217.25
2022-10-29T08:11:20.090Z,101212.47
2022-10-29T08:13:50.981Z,101208.53
2022-10-29T08:16:19.454Z,101217.28
2022-10-29T08:18:47.353Z,101208.78
2022-10-29T08:21:16.009Z,101213.81
2022-10-29T08:23:43.957Z,101210.06
2022-10-29T08:26:12.455Z,101212.38
2022-10-29T08:28:40.390Z,101209.50
2022-10-29T08:31:10.330Z,101208.25
2022-10-29T08:33:38.291Z,101206.16
2022-10-29T08:36:07.365Z,101204.13
2022-10-29T08:38:35.311Z,101198.53
2022-10-29T08:41:31.902Z,101193.13
2022-10-29T08:44:07.464Z,101195.41
2022-10-29T08:46:42.614Z,101188.78
2022-10-29T08:49:13.328Z,101187.53
2022-10-29T08:51:42.749Z,101193.38
2022-10-29T08:57:03.588Z,101177.41
2022-10-29T08:59:34.661Z,101168.91
2022-10-29T09:02:04.864Z,101172.25
2022-10-29T09:04:34.511Z,101168.50
2022-10-29T09:07:11.221Z,101169.97
2022-10-29T09:09:40.417Z,101172.31
2022-10-29T09:12:27.849Z,101165.66
2022-10-29T09:15:10.809Z,101164.19
2022-10-29T09:17:44.059Z,101166.50
2022-10-29T09:20:24.352Z,101157.38
2022-10-29T09:22:56.942Z,101159.66
2022-10-29T09:25:26.605Z,101154.91
2022-10-29T09:28:02.306Z,101158.19
2022-10-29T09:30:31.027Z,101157.81
2022-10-29T09:33:01.629Z,101154.91
2022-10-29T09:35:38.925Z,101152.00
2022-10-29T09:38:16.725Z,101152.63
2022-10-29T09:40:44.756Z,101150.53
2022-10-29T09:43:19.817Z,101151.19
2022-10-29T09:45:49.539Z,101143.69
2022-10-29T09:48:22.298Z,101146.00
2022-10-29T09:50:55.303Z,101136.81
2022-10-29T09:53:23.527Z,101135.59
2022-10-29T09:55:53.893Z,101138.72
2022-10-29T09:58:22.948Z,101131.22
2022-10-29T10:00:51.654Z,101123.75
2022-10-29T10:03:23.520Z,101116.25
2022-10-29T10:06:03.195Z,101114.19
2022-10-29T10:08:32.290Z,101116.47
2022-10-29T10:11:01.295Z,101116.47
2022-10-29T10:13:31.060Z,101123.34
2022-10-29T10:15:59.823Z,101108.56
2022-10-29T10:18:39.609Z,101111.91
2022-10-29T10:21:08.905Z,101100.03
2022-10-29T10:23:44.790Z,101101.53
2022-10-29T10:26:31.850Z,101102.16
2022-10-29T10:29:15.384Z,101103.63
2022-10-29T10:31:44.504Z,101097.97
2022-10-29T10:34:21.144Z,101102.16
2022-10-29T10:36:52.369Z,101102.78
2022-10-29T10:39:27.996Z,101098.00
2022-10-29T10:41:56.380Z,101096.94
2022-10-29T10:44:24.508Z,101089.66
2022-10-29T10:46:53.494Z,101097.56
2022-10-29T10:49:28.796Z,101087.38
2022-10-29T10:51:57.064Z,101083.63
2022-10-29T10:54:28.935Z,101078.00
2022-10-29T10:57:02.022Z,101072.38
2022-10-29T10:59:38.704Z,101075.69
2022-10-29T11:02:07.722Z,101062.16
2022-10-29T11:04:38.582Z,101072.56
2022-10-29T11:07:07.901Z,101066.13
2022-10-29T11:09:36.970Z,101065.91
2022-10-29T11:12:07.714Z,101063.00
2022-10-29T11:14:37.631Z,101064.03
2022-10-29T11:17:06.440Z,101060.06
2022-10-29T11:19:37.198Z,101057.16
2022-10-29T11:22:10.080Z,101055.28
2022-10-29T11:24:43.798Z,101053.41
2022-10-29T11:27:25.685Z,101055.91
2022-10-29T11:29:57.806Z,101055.09
2022-10-29T11:32:29.877Z,101046.72
2022-10-29T11:35:04.330Z,101047.56
2022-10-29T11:37:35.134Z,101040.50
2022-10-29T11:40:04.583Z,101040.50
2022-10-29T11:42:33.066Z,101042.13
2022-10-29T11:45:01.090Z,101027.56
2022-10-29T11:47:38.721Z,101023.81
2022-10-29T11:50:13.315Z,101025.69
2022-10-29T11:52:45.795Z,101030.91
2022-10-29T11:55:23.614Z,101031.72
2022-10-29T11:57:54.043Z,101029.84
2022-10-29T12:00:23.816Z,101034.22
2022-10-29T12:03:17.580Z,101031.31
2022-10-29T12:05:50.037Z,101025.06
2022-10-29T12:08:31.097Z,101019.41
2022-10-29T12:11:01.774Z,101020.28
2022-10-29T12:13:37.617Z,101020.28
2022-10-29T12:16:12.453Z,101016.72
2022-10-29T12:18:45.325Z,101010.25
2022-10-29T12:21:19.400Z,101008.38
2022-10-29T12:23:53.511Z,101001.31
2022-10-29T12:26:23.141Z,101002.13
2022-10-29T12:28:54.397Z,101000.25
2022-10-29T12:31:25.700Z,101002.97
2022-10-29T12:33:57.187Z,100998.38
2022-10-29T12:36:30.834Z,100999.19
2022-10-29T12:38:59.220Z,100993.78
2022-10-29T12:41:28.007Z,100986.72
2022-10-29T12:44:00.320Z,100999.19
2022-10-29T12:46:32.388Z,100993.78
2022-10-29T12:49:05.605Z,100985.66
2022-10-29T12:51:38.604Z,100981.91
2022-10-29T12:54:32.633Z,100986.50
2022-10-29T12:57:07.454Z,100976.50
2022-10-29T12:59:36.975Z,100970.03
2022-10-29T13:02:45.079Z,100959.19
2022-10-29T13:05:40.416Z,100954.41
2022-10-29T13:08:27.661Z,100952.53
2022-10-29T13:10:56.358Z,100963.16
2022-10-29T13:13:54.989Z,100963.75
2022-10-29T13:16:26.489Z,100960.22
2022-10-29T13:19:19.726Z,100957.31
2022-10-29T13:22:04.868Z,100958.94
2022-10-29T13:24:34.454Z,100953.53
2022-10-29T13:27:09.673Z,100953.34
2022-10-29T13:29:45.506Z,100955.22
2022-10-29T13:32:34.591Z,100958.75
2022-10-29T13:35:03.471Z,100947.91
2022-10-29T13:37:52.000Z,100944.97
2022-10-29T13:40:53.308Z,100945.84
2022-10-29T13:43:23.157Z,100944.97
2022-10-29T13:45:53.718Z,100934.13
2022-10-29T13:48:26.306Z,100932.50
2022-10-29T13:50:54.536Z,100934.13
2022-10-29T13:53:24.329Z,100941.25
2022-10-29T13:55:52.286Z,100936.66
2022-10-29T13:58:25.221Z,100942.06
2022-10-29T14:00:55.973Z,100944.78
2022-10-29T14:03:26.628Z,100944.78
2022-10-29T14:05:57.338Z,100946.66
2022-10-29T14:08:27.279Z,100940.41
2022-10-29T14:10:58.182Z,100944.97
2022-10-29T14:13:31.197Z,100954.97
2022-10-29T14:16:10.172Z,100944.38
2022-10-29T14:18:39.134Z,100952.50
2022-10-29T14:21:08.211Z,100949.19
2022-10-29T14:23:36.268Z,100942.06
2022-10-29T14:26:04.280Z,100952.91
2022-10-29T14:28:33.833Z,100942.31
2022-10-29T14:31:04.142Z,100944.19
2022-10-29T14:33:34.911Z,100937.09
2022-10-29T14:36:07.171Z,100934.63
2022-10-29T14:38:39.737Z,100934.63
2022-10-29T14:41:07.689Z,100933.75
2022-10-29T14:43:37.225Z,100935.66
2022-10-29T14:46:14.057Z,100925.03
2022-10-29T14:48:47.347Z,100925.88
2022-10-29T14:51:20.003Z,100935.06
2022-10-29T14:53:48.520Z,100919.00
2022-10-29T14:56:19.564Z,100926.50
2022-10-29T14:58:50.119Z,100926.72
2022-10-29T15:01:20.544Z,100920.69
2022-10-29T15:03:49.205Z,100931.72
2022-10-29T15:06:18.360Z,100928.41
2022-10-29T15:08:47.395Z,100926.75
2022-10-29T15:11:36.154Z,100932.59
2022-10-29T15:14:07.944Z,100928.22
2022-10-29T15:16:38.385Z,100930.31
2022-10-29T15:19:12.873Z,100935.94
2022-10-29T15:21:41.605Z,100934.47
2022-10-29T15:24:10.922Z,100949.06
2022-10-29T15:26:45.677Z,100955.53
2022-10-29T15:29:15.694Z,100946.81
2022-10-29T15:31:44.787Z,100946.19
2022-10-29T15:34:17.160Z,100951.78
2022-10-29T15:36:49.086Z,100947.63
2022-10-29T15:39:23.521Z,100945.97
2022-10-29T15:41:51.750Z,100943.28
2022-10-29T15:44:36.033Z,100935.56
2022-10-29T15:47:11.415Z,100935.56
2022-10-29T15:49:40.103Z,100935.78
2022-10-29T15:52:10.269Z,100940.38
2022-10-29T15:54:38.919Z,100946.84
2022-10-29T15:57:07.065Z,100947.84
2022-10-29T15:59:37.888Z,100946.22
2022-10-29T16:02:11.423Z,100953.50
2022-10-29T16:04:40.280Z,100949.94
2022-10-29T16:07:08.441Z,100951.00
2022-10-29T16:09:37.034Z,100949.34
2022-10-29T16:12:05.326Z,100946.84
2022-10-29T16:14:33.370Z,100946.00
2022-10-29T16:17:03.517Z,100942.66
2022-10-29T16:19:31.501Z,100949.13
2022-10-29T16:22:00.908Z,100948.47
2022-10-29T16:24:29.170Z,100942.44
2022-10-29T16:26:57.967Z,100940.78
2022-10-29T16:29:25.906Z,100936.41
2022-10-29T16:31:54.506Z,100937.47
2022-10-29T16:34:24.797Z,100938.50
2022-10-29T16:36:53.586Z,100938.72
2022-10-29T16:39:21.565Z,100939.75
2022-10-29T16:41:50.562Z,100944.34
2022-10-29T16:44:18.493Z,100943.50
2022-10-29T16:46:48.051Z,100933.91
2022-10-29T16:49:15.980Z,100936.63
2022-10-29T16:51:45.999Z,100940.38
2022-10-29T16:54:14.087Z,100936.03
2022-10-29T16:56:42.798Z,100933.31
2022-10-29T16:59:11.455Z,100929.75
2022-10-29T17:01:41.610Z,100928.94
2022-10-29T17:04:09.760Z,100935.41
2022-10-29T17:06:38.434Z,100937.03
2022-10-29T17:09:08.135Z,100934.56
2022-10-29T17:11:36.987Z,100939.13
2022-10-29T17:14:05.028Z,100939.34
2022-10-29T17:19:06.609Z,100947.66
2022-10-29T17:21:35.244Z,100951.44
2022-10-29T17:24:06.879Z,100949.75
2022-10-29T17:26:38.013Z,100950.16
2022-10-29T17:29:05.943Z,100951.84
2022-10-29T17:31:34.634Z,100957.69
2022-10-29T17:34:02.603Z,100956.00
2022-10-29T17:36:31.365Z,100955.16
2022-10-29T17:38:59.288Z,100959.75
2022-10-29T17:41:27.942Z,100956.41
2022-10-29T17:43:57.255Z,100951.00
2022-10-29T17:46:25.934Z,100947.66
2022-10-29T17:48:55.800Z,100952.06
2022-10-29T17:51:24.560Z,100944.13
2022-10-29T17:53:52.482Z,100946.03
2022-10-29T17:56:21.086Z,100939.78
2022-10-29T17:58:49.038Z,100940.63
2022-10-29T18:01:21.236Z,100930.22
2022-10-29T18:03:49.209Z,100931.22
2022-10-29T18:06:19.134Z,100933.94
2022-10-29T18:08:47.286Z,100933.94
2022-10-29T18:11:17.677Z,100926.06
2022-10-29T18:13:46.168Z,100927.94
2022-10-29T18:16:15.558Z,100929.78
2022-10-29T18:19:00.638Z,100932.72
2022-10-29T18:21:31.137Z,100937.28
2022-10-29T18:23:59.209Z,100949.97
2022-10-29T18:26:29.366Z,100945.78
2022-10-29T18:28:57.729Z,100948.31
2022-10-29T18:31:28.134Z,100950.38
2022-10-29T18:33:57.563Z,100947.91
2022-10-29T18:36:26.250Z,100947.03
2022-10-29T18:38:54.658Z,100936.44
2022-10-29T18:41:23.355Z,100935.63
2022-10-29T18:43:51.504Z,100950.16
2022-10-29T18:46:21.153Z,100938.53
2022-10-29T18:48:49.367Z,100935.00
2022-10-29T18:51:19.712Z,100937.06
2022-10-29T18:53:48.460Z,100936.25
2022-10-29T18:56:17.086Z,100935.41
2022-10-29T18:58:45.738Z,100941.00
2022-10-29T19:01:15.600Z,100941.00
2022-10-29T19:03:45.090Z,100943.94
2022-10-29T19:06:14.031Z,100942.25
2022-10-29T19:08:45.204Z,100942.25
2022-10-29T19:11:14.537Z,100934.38
2022-10-29T19:13:43.206Z,100931.88
2022-10-29T19:16:11.984Z,100936.44
2022-10-29T19:18:42.567Z,100940.16
2022-10-29T19:21:11.812Z,100935.63
2022-10-29T19:23:41.127Z,100939.34
2022-10-29T19:26:11.242Z,100935.81
2022-10-29T19:28:40.196Z,100927.91
2022-10-29T19:31:08.899Z,100936.00
2022-10-29T19:33:37.719Z,100927.28
2022-10-29T19:36:06.113Z,100922.72
2022-10-29T19:38:34.892Z,100931.00
2022-10-29T19:41:02.859Z,100925.59
2022-10-29T19:43:33.257Z,100929.34
2022-10-29T19:46:01.230Z,100923.94
2022-10-29T19:48:29.870Z,100926.81
2022-10-29T19:50:57.820Z,100921.25
2022-10-29T19:53:27.176Z,100927.69
2022-10-29T19:55:55.231Z,100922.28
2022-10-29T19:58:25.162Z,100924.13
2022-10-29T20:00:55.366Z,100926.00
2022-10-29T20:03:26.171Z,100919.75
2022-10-29T20:05:56.274Z,100918.94
2022-10-29T20:08:24.932Z,100919.94
2022-10-29T20:10:55.824Z,100918.31
2022-10-29T20:13:24.617Z,100921.00
2022-10-29T20:15:54.037Z,100931.00
2022-10-29T20:18:22.770Z,100924.75
2022-10-29T20:20:54.600Z,100923.91
2022-10-29T20:23:23.361Z,100924.13
2022-10-29T20:25:51.377Z,100923.06
2022-10-29T20:28:20.195Z,100917.91
2022-10-29T20:30:48.155Z,100923.31
2022-10-29T20:33:18.250Z,100926.19
2022-10-29T20:35:46.210Z,100924.53
2022-10-29T20:38:14.916Z,100918.28
2022-10-29T20:40:43.590Z,100925.56
2022-10-29T20:43:12.293Z,100927.44
2022-10-29T20:45:40.371Z,100924.97
2022-10-29T20:48:09.029Z,100926.81
2022-10-29T20:50:38.345Z,100925.97
2022-10-29T20:53:07.195Z,100918.91
2022-10-29T20:55:35.162Z,100923.28
2022-10-29T20:58:03.930Z,100910.81
2022-10-29T21:00:32.627Z,100915.38
2022-10-29T21:03:01.266Z,100905.41
2022-10-29T21:05:29.281Z,100901.03
2022-10-29T21:08:00.448Z,100901.88
2022-10-29T21:10:28.691Z,100896.47
2022-10-29T21:12:56.896Z,100890.22
2022-10-29T21:15:25.833Z,100893.97
2022-10-29T21:17:53.762Z,100883.16
2022-10-29T21:20:22.408Z,100879.63
2022-10-29T21:22:50.403Z,100875.03
2022-10-29T21:25:20.551Z,100876.91
2022-10-29T21:27:48.511Z,100873.59
2022-10-29T21:30:17.332Z,100872.53
2022-10-29T21:32:45.319Z,100868.19
2022-10-29T21:35:14.369Z,100865.66
2022-10-29T21:37:42.360Z,100871.06
2022-10-29T21:40:12.088Z,100869.44
2022-10-29T21:42:41.383Z,100867.78
2022-10-29T21:45:10.248Z,100866.09
2022-10-29T21:47:38.190Z,100867.97
2022-10-29T21:50:07.120Z,100864.44
2022-10-29T21:52:35.075Z,100867.13
2022-10-29T21:55:03.331Z,100857.34
2022-10-29T21:57:31.249Z,100855.69
2022-10-29T22:00:00.860Z,100858.63
2022-10-29T22:02:29.109Z,100865.88
2022-10-29T22:04:57.115Z,100860.47
2022-10-29T22:07:25.065Z,100856.94
2022-10-29T22:09:53.171Z,100851.53
2022-10-29T22:12:21.078Z,100851.53
2022-10-29T22:14:49.815Z,100850.72
2022-10-29T22:17:19.235Z,100844.47
2022-10-29T22:19:47.161Z,100838.25
2022-10-29T22:22:15.157Z,100839.09
2022-10-29T22:24:43.170Z,100838.25
2022-10-29T22:27:11.089Z,100843.66
2022-10-29T22:29:39.072Z,100846.38
2022-10-29T22:32:07.828Z,100856.53
2022-10-29T22:34:37.310Z,100860.25
2022-10-29T22:37:05.253Z,100856.72
2022-10-29T22:39:33.174Z,100858.59
2022-10-29T22:42:01.093Z,100856.94
2022-10-29T22:44:29.346Z,100856.94
2022-10-29T22:46:57.330Z,100847.16
2022-10-29T22:49:25.497Z,100857.34
2022-10-29T22:51:58.715Z,100854.63
2022-10-29T22:54:29.469Z,100857.34
2022-10-29T22:56:57.358Z,100855.69
2022-10-29T22:59:25.414Z,100853.81
2022-10-29T23:01:53.571Z,100854.84
2022-10-29T23:04:22.658Z,100861.09
2022-10-29T23:06:50.550Z,100859.44
2022-10-29T23:09:19.979Z,100863.16
2022-10-29T23:11:47.890Z,100861.28
2022-10-29T23:14:15.830Z,100858.56
2022-10-29T23:16:43.772Z,100846.13
2022-10-29T23:19:11.787Z,100857.75
2022-10-29T23:21:40.175Z,100855.06
2022-10-29T23:24:08.980Z,100860.44
2022-10-29T23:26:38.328Z,100863.16
2022-10-29T23:29:06.425Z,100866.91
2022-10-29T23:31:34.358Z,100863.97
2022-10-29T23:34:02.312Z,100863.97
2022-10-29T23:36:30.306Z,100863.16
2022-10-29T23:38:58.588Z,100864.19
2022-10-29T23:41:26.715Z,100871.47
2022-10-29T23:43:56.179Z,100859.84
2022-10-29T23:46:24.141Z,100865.25
2022-10-29T23:48:52.047Z,100855.47
2022-10-29T23:51:20.149Z,100860.03
2022-10-29T23:53:50.495Z,100852.13
2022-10-29T23:56:21.287Z,100855.69
2022-10-29T23:58:49.248Z,100848.59
